Galatia, Kansas
Current Conditions -  °F | °C
As of 7:55 AM on Thursday 23 Oct 2014 (Local Time) from KGBD Reporting Station
Overcast Overcast  
Wind Chill: 61°   Ceiling: 2500
Heat Index: 61°   Visibility: 7mi
Dew Point: 55°   Wind: 6mph
Humidity: 82%   Direction: 180°S
Pressure: 30.08"   Gusts: NA
Location:  38.523°N, 99.0878°W
Report Text: KGBD 231255Z AUTO 18005KT 7SM OVC025 16/13 A3008 RMK AO1
Loading
Personal Weather Stations






























Interactive Weather Map New forecast layout! Learn more

10-Day Weather Forecast

Advertisements
Track Severe Weather on mobile